sensor_id;sensor_type;location;lat;lon;timestamp;temperature;humidity
36586;DHT22;22591;48.314;11.562;2023-06-04T00:02:12;12.50;93.80
36586;DHT22;22591;48.314;11.562;2023-06-04T00:04:37;12.50;94.00
36586;DHT22;22591;48.314;11.562;2023-06-04T00:07:03;12.40;94.10
36586;DHT22;22591;48.314;11.562;2023-06-04T00:09:29;12.30;94.20
36586;DHT22;22591;48.314;11.562;2023-06-04T00:11:55;12.30;94.30
36586;DHT22;22591;48.314;11.562;2023-06-04T00:14:20;12.30;94.30
36586;DHT22;22591;48.314;11.562;2023-06-04T00:16:46;12.30;94.40
36586;DHT22;22591;48.314;11.562;2023-06-04T00:19:11;12.20;94.40
36586;DHT22;22591;48.314;11.562;2023-06-04T00:21:37;12.20;94.40
36586;DHT22;22591;48.314;11.562;2023-06-04T00:24:02;12.30;94.50
36586;DHT22;22591;48.314;11.562;2023-06-04T00:26:28;12.20;94.50
36586;DHT22;22591;48.314;11.562;2023-06-04T00:28:54;12.20;94.50
36586;DHT22;22591;48.314;11.562;2023-06-04T00:31:20;12.20;94.50
36586;DHT22;22591;48.314;11.562;2023-06-04T00:33:49;12.20;94.60
36586;DHT22;22591;48.314;11.562;2023-06-04T00:36:15;12.20;94.60
36586;DHT22;22591;48.314;11.562;2023-06-04T00:38:40;12.20;94.60
36586;DHT22;22591;48.314;11.562;2023-06-04T00:41:06;12.20;94.60
36586;DHT22;22591;48.314;11.562;2023-06-04T00:43:31;12.20;94.70
36586;DHT22;22591;48.314;11.562;2023-06-04T00:45:58;12.10;94.70
36586;DHT22;22591;48.314;11.562;2023-06-04T00:48:25;12.10;94.80
36586;DHT22;22591;48.314;11.562;2023-06-04T00:50:53;12.10;94.80
36586;DHT22;22591;48.314;11.562;2023-06-04T00:53:20;12.00;94.80
36586;DHT22;22591;48.314;11.562;2023-06-04T00:55:47;11.90;94.90
36586;DHT22;22591;48.314;11.562;2023-06-04T00:58:12;11.90;95.00
36586;DHT22;22591;48.314;11.562;2023-06-04T01:00:41;11.80;95.10
36586;DHT22;22591;48.314;11.562;2023-06-04T01:03:13;11.80;95.20
36586;DHT22;22591;48.314;11.562;2023-06-04T01:08:19;11.70;95.40
36586;DHT22;22591;48.314;11.562;2023-06-04T01:10:54;11.70;95.40
36586;DHT22;22591;48.314;11.562;2023-06-04T01:13:21;11.70;95.40
36586;DHT22;22591;48.314;11.562;2023-06-04T01:15:47;11.60;95.40
36586;DHT22;22591;48.314;11.562;2023-06-04T01:18:15;11.60;95.30
36586;DHT22;22591;48.314;11.562;2023-06-04T01:21:15;11.60;95.40
36586;DHT22;22591;48.314;11.562;2023-06-04T01:23:50;11.60;95.40
36586;DHT22;22591;48.314;11.562;2023-06-04T01:26:27;11.60;95.50
36586;DHT22;22591;48.314;11.562;2023-06-04T01:28:55;11.50;95.40
36586;DHT22;22591;48.314;11.562;2023-06-04T01:31:21;11.40;95.40
36586;DHT22;22591;48.314;11.562;2023-06-04T01:33:57;11.40;95.50
36586;DHT22;22591;48.314;11.562;2023-06-04T01:36:23;11.30;95.70
36586;DHT22;22591;48.314;11.562;2023-06-04T01:38:49;11.30;95.70
36586;DHT22;22591;48.314;11.562;2023-06-04T01:41:15;11.20;95.70
36586;DHT22;22591;48.314;11.562;2023-06-04T01:43:41;11.10;95.80
36586;DHT22;22591;48.314;11.562;2023-06-04T01:46:06;11.10;95.80
36586;DHT22;22591;48.314;11.562;2023-06-04T01:48:32;11.00;95.90
36586;DHT22;22591;48.314;11.562;2023-06-04T01:50:58;10.90;96.00
36586;DHT22;22591;48.314;11.562;2023-06-04T01:53:24;10.90;96.10
36586;DHT22;22591;48.314;11.562;2023-06-04T01:55:49;10.90;96.20
36586;DHT22;22591;48.314;11.562;2023-06-04T01:58:18;10.90;96.20
36586;DHT22;22591;48.314;11.562;2023-06-04T02:00:55;10.90;96.20
36586;DHT22;22591;48.314;11.562;2023-06-04T02:03:25;10.90;96.10
36586;DHT22;22591;48.314;11.562;2023-06-04T02:05:51;10.90;96.10
36586;DHT22;22591;48.314;11.562;2023-06-04T02:08:17;10.80;96.10
36586;DHT22;22591;48.314;11.562;2023-06-04T02:10:47;10.80;96.10
36586;DHT22;22591;48.314;11.562;2023-06-04T02:13:14;10.90;96.00
36586;DHT22;22591;48.314;11.562;2023-06-04T02:15:40;10.90;95.90
36586;DHT22;22591;48.314;11.562;2023-06-04T02:18:20;10.90;95.80
36586;DHT22;22591;48.314;11.562;2023-06-04T02:20:50;10.90;95.60
36586;DHT22;22591;48.314;11.562;2023-06-04T02:23:17;10.90;95.60
36586;DHT22;22591;48.314;11.562;2023-06-04T02:25:43;10.80;95.50
36586;DHT22;22591;48.314;11.562;2023-06-04T02:28:12;10.80;95.80
36586;DHT22;22591;48.314;11.562;2023-06-04T02:30:38;10.60;95.70
36586;DHT22;22591;48.314;11.562;2023-06-04T02:33:03;10.60;96.00
36586;DHT22;22591;48.314;11.562;2023-06-04T02:35:30;10.60;96.40
36586;DHT22;22591;48.314;11.562;2023-06-04T02:37:56;10.70;96.30
36586;DHT22;22591;48.314;11.562;2023-06-04T02:40:24;10.70;96.00
36586;DHT22;22591;48.314;11.562;2023-06-04T02:42:50;10.80;96.00
36586;DHT22;22591;48.314;11.562;2023-06-04T02:45:15;10.80;95.90
36586;DHT22;22591;48.314;11.562;2023-06-04T02:47:41;10.80;95.60
36586;DHT22;22591;48.314;11.562;2023-06-04T02:50:07;10.80;95.50
36586;DHT22;22591;48.314;11.562;2023-06-04T02:52:32;10.70;95.70
36586;DHT22;22591;48.314;11.562;2023-06-04T02:54:58;10.70;95.70
36586;DHT22;22591;48.314;11.562;2023-06-04T02:57:23;10.70;95.70
36586;DHT22;22591;48.314;11.562;2023-06-04T02:59:49;10.70;95.70
36586;DHT22;22591;48.314;11.562;2023-06-04T03:02:14;10.70;95.70
36586;DHT22;22591;48.314;11.562;2023-06-04T03:04:41;10.70;95.70
36586;DHT22;22591;48.314;11.562;2023-06-04T03:07:08;10.80;95.70
36586;DHT22;22591;48.314;11.562;2023-06-04T03:09:36;10.80;95.50
36586;DHT22;22591;48.314;11.562;2023-06-04T03:12:02;10.90;95.40
36586;DHT22;22591;48.314;11.562;2023-06-04T03:14:28;10.90;95.20
36586;DHT22;22591;48.314;11.562;2023-06-04T03:17:02;10.90;95.20
36586;DHT22;22591;48.314;11.562;2023-06-04T03:19:40;10.90;95.30
36586;DHT22;22591;48.314;11.562;2023-06-04T03:22:07;10.80;95.40
36586;DHT22;22591;48.314;11.562;2023-06-04T03:24:38;10.80;95.40
36586;DHT22;22591;48.314;11.562;2023-06-04T03:27:04;10.70;95.40
36586;DHT22;22591;48.314;11.562;2023-06-04T03:29:30;10.70;95.50
36586;DHT22;22591;48.314;11.562;2023-06-04T03:31:56;10.70;95.60
36586;DHT22;22591;48.314;11.562;2023-06-04T03:34:22;10.60;95.60
36586;DHT22;22591;48.314;11.562;2023-06-04T03:36:51;10.60;95.70
36586;DHT22;22591;48.314;11.562;2023-06-04T03:39:17;10.50;95.80
36586;DHT22;22591;48.314;11.562;2023-06-04T03:41:43;10.60;95.90
36586;DHT22;22591;48.314;11.562;2023-06-04T03:44:09;10.60;96.10
36586;DHT22;22591;48.314;11.562;2023-06-04T03:46:34;10.60;96.20
36586;DHT22;22591;48.314;11.562;2023-06-04T03:49:01;10.60;96.40
36586;DHT22;22591;48.314;11.562;2023-06-04T03:51:27;10.60;96.40
36586;DHT22;22591;48.314;11.562;2023-06-04T03:53:52;10.60;96.40
36586;DHT22;22591;48.314;11.562;2023-06-04T03:56:18;10.60;96.30
36586;DHT22;22591;48.314;11.562;2023-06-04T03:58:44;10.70;96.40
36586;DHT22;22591;48.314;11.562;2023-06-04T04:01:10;10.70;96.50
36586;DHT22;22591;48.314;11.562;2023-06-04T04:03:38;10.80;96.50
36586;DHT22;22591;48.314;11.562;2023-06-04T04:06:05;10.80;96.40
36586;DHT22;22591;48.314;11.562;2023-06-04T04:08:31;10.90;96.50
36586;DHT22;22591;48.314;11.562;2023-06-04T04:10:59;10.90;96.50
36586;DHT22;22591;48.314;11.562;2023-06-04T04:13:25;11.10;96.50
36586;DHT22;22591;48.314;11.562;2023-06-04T04:15:51;11.30;96.10
36586;DHT22;22591;48.314;11.562;2023-06-04T04:18:19;11.40;95.90
36586;DHT22;22591;48.314;11.562;2023-06-04T04:20:45;11.50;95.80
36586;DHT22;22591;48.314;11.562;2023-06-04T04:23:11;11.60;95.70
36586;DHT22;22591;48.314;11.562;2023-06-04T04:25:37;11.70;95.60
36586;DHT22;22591;48.314;11.562;2023-06-04T04:28:04;11.80;95.50
36586;DHT22;22591;48.314;11.562;2023-06-04T04:30:36;11.90;95.40
36586;DHT22;22591;48.314;11.562;2023-06-04T04:33:02;12.10;95.20
36586;DHT22;22591;48.314;11.562;2023-06-04T04:35:30;12.20;94.80
36586;DHT22;22591;48.314;11.562;2023-06-04T04:37:58;12.30;94.50
36586;DHT22;22591;48.314;11.562;2023-06-04T04:40:24;12.40;94.20
36586;DHT22;22591;48.314;11.562;2023-06-04T04:42:50;12.60;94.10
36586;DHT22;22591;48.314;11.562;2023-06-04T04:45:16;12.70;93.90
36586;DHT22;22591;48.314;11.562;2023-06-04T04:47:42;12.80;93.70
36586;DHT22;22591;48.314;11.562;2023-06-04T04:50:08;13.00;93.60
36586;DHT22;22591;48.314;11.562;2023-06-04T04:52:34;13.10;93.40
36586;DHT22;22591;48.314;11.562;2023-06-04T04:54:59;13.20;93.10
36586;DHT22;22591;48.314;11.562;2023-06-04T04:57:25;13.20;92.80
36586;DHT22;22591;48.314;11.562;2023-06-04T04:59:51;13.30;92.80
36586;DHT22;22591;48.314;11.562;2023-06-04T05:02:16;13.50;92.50
36586;DHT22;22591;48.314;11.562;2023-06-04T05:04:42;13.60;91.90
36586;DHT22;22591;48.314;11.562;2023-06-04T05:07:08;13.70;91.70
36586;DHT22;22591;48.314;11.562;2023-06-04T05:09:33;13.80;91.50
36586;DHT22;22591;48.314;11.562;2023-06-04T05:11:59;13.90;90.70
36586;DHT22;22591;48.314;11.562;2023-06-04T05:14:24;14.00;90.70
36586;DHT22;22591;48.314;11.562;2023-06-04T05:16:50;14.00;90.70
36586;DHT22;22591;48.314;11.562;2023-06-04T05:19:16;14.10;90.50
36586;DHT22;22591;48.314;11.562;2023-06-04T05:21:42;14.20;90.30
36586;DHT22;22591;48.314;11.562;2023-06-04T05:24:09;14.20;90.10
36586;DHT22;22591;48.314;11.562;2023-06-04T05:26:35;14.40;90.10
36586;DHT22;22591;48.314;11.562;2023-06-04T05:29:00;14.60;90.00
36586;DHT22;22591;48.314;11.562;2023-06-04T05:31:27;14.70;89.40
36586;DHT22;22591;48.314;11.562;2023-06-04T05:33:52;14.80;88.60
36586;DHT22;22591;48.314;11.562;2023-06-04T05:36:19;15.00;88.10
36586;DHT22;22591;48.314;11.562;2023-06-04T05:38:44;15.10;88.00
36586;DHT22;22591;48.314;11.562;2023-06-04T05:41:10;15.30;87.20
36586;DHT22;22591;48.314;11.562;2023-06-04T05:43:37;15.40;86.50
36586;DHT22;22591;48.314;11.562;2023-06-04T05:46:02;15.50;86.80
36586;DHT22;22591;48.314;11.562;2023-06-04T05:48:28;15.60;85.60
36586;DHT22;22591;48.314;11.562;2023-06-04T05:50:53;15.60;84.60
36586;DHT22;22591;48.314;11.562;2023-06-04T05:53:19;15.70;83.30
36586;DHT22;22591;48.314;11.562;2023-06-04T05:55:45;15.70;82.70
36586;DHT22;22591;48.314;11.562;2023-06-04T05:58:10;15.80;82.20
36586;DHT22;22591;48.314;11.562;2023-06-04T06:00:36;15.90;82.30
36586;DHT22;22591;48.314;11.562;2023-06-04T06:03:01;16.30;81.90
36586;DHT22;22591;48.314;11.562;2023-06-04T06:05:27;16.80;81.40
36586;DHT22;22591;48.314;11.562;2023-06-04T06:07:53;17.70;80.70
36586;DHT22;22591;48.314;11.562;2023-06-04T06:10:18;19.20;77.40
36586;DHT22;22591;48.314;11.562;2023-06-04T06:12:44;20.90;73.00
36586;DHT22;22591;48.314;11.562;2023-06-04T06:15:10;22.70;69.60
36586;DHT22;22591;48.314;11.562;2023-06-04T06:17:38;24.10;64.30
36586;DHT22;22591;48.314;11.562;2023-06-04T06:20:03;24.80;60.00
36586;DHT22;22591;48.314;11.562;2023-06-04T06:22:33;25.60;57.90
36586;DHT22;22591;48.314;11.562;2023-06-04T06:25:01;26.00;56.00
36586;DHT22;22591;48.314;11.562;2023-06-04T06:27:26;26.70;55.00
36586;DHT22;22591;48.314;11.562;2023-06-04T06:29:52;27.30;54.30
36586;DHT22;22591;48.314;11.562;2023-06-04T06:32:17;27.80;52.50
36586;DHT22;22591;48.314;11.562;2023-06-04T06:34:43;28.00;51.70
36586;DHT22;22591;48.314;11.562;2023-06-04T06:37:08;28.20;51.10
36586;DHT22;22591;48.314;11.562;2023-06-04T06:39:34;28.50;51.00
36586;DHT22;22591;48.314;11.562;2023-06-04T06:41:59;28.60;50.00
36586;DHT22;22591;48.314;11.562;2023-06-04T06:44:25;28.90;49.60
36586;DHT22;22591;48.314;11.562;2023-06-04T06:46:50;28.80;48.60
36586;DHT22;22591;48.314;11.562;2023-06-04T06:49:16;27.40;48.80
36586;DHT22;22591;48.314;11.562;2023-06-04T06:51:42;25.40;50.50
36586;DHT22;22591;48.314;11.562;2023-06-04T06:54:10;23.70;53.90
36586;DHT22;22591;48.314;11.562;2023-06-04T06:56:36;22.50;56.00
36586;DHT22;22591;48.314;11.562;2023-06-04T06:59:01;21.60;57.80
36586;DHT22;22591;48.314;11.562;2023-06-04T07:01:27;21.00;59.70
36586;DHT22;22591;48.314;11.562;2023-06-04T07:03:52;20.50;60.90
36586;DHT22;22591;48.314;11.562;2023-06-04T07:06:18;20.10;61.80
36586;DHT22;22591;48.314;11.562;2023-06-04T07:08:44;19.80;63.30
36586;DHT22;22591;48.314;11.562;2023-06-04T07:11:09;19.60;65.40
36586;DHT22;22591;48.314;11.562;2023-06-04T07:13:38;19.30;65.20
36586;DHT22;22591;48.314;11.562;2023-06-04T07:16:04;19.20;66.10
36586;DHT22;22591;48.314;11.562;2023-06-04T07:18:30;19.00;66.00
36586;DHT22;22591;48.314;11.562;2023-06-04T07:20:55;18.80;67.10
36586;DHT22;22591;48.314;11.562;2023-06-04T07:23:21;18.80;67.50
36586;DHT22;22591;48.314;11.562;2023-06-04T07:25:46;18.80;67.50
36586;DHT22;22591;48.314;11.562;2023-06-04T07:28:12;18.80;68.80
36586;DHT22;22591;48.314;11.562;2023-06-04T07:30:38;18.80;68.70
36586;DHT22;22591;48.314;11.562;2023-06-04T07:33:03;18.80;68.80
36586;DHT22;22591;48.314;11.562;2023-06-04T07:35:29;18.80;69.10
36586;DHT22;22591;48.314;11.562;2023-06-04T07:37:55;18.90;69.10
36586;DHT22;22591;48.314;11.562;2023-06-04T07:40:20;18.90;69.00
36586;DHT22;22591;48.314;11.562;2023-06-04T07:42:46;18.80;68.50
36586;DHT22;22591;48.314;11.562;2023-06-04T07:45:15;18.90;69.50
36586;DHT22;22591;48.314;11.562;2023-06-04T07:47:42;18.90;69.00
36586;DHT22;22591;48.314;11.562;2023-06-04T07:50:08;18.90;69.60
36586;DHT22;22591;48.314;11.562;2023-06-04T07:52:33;18.90;69.50
36586;DHT22;22591;48.314;11.562;2023-06-04T07:54:59;18.90;70.20
36586;DHT22;22591;48.314;11.562;2023-06-04T07:57:25;19.00;70.60
36586;DHT22;22591;48.314;11.562;2023-06-04T07:59:51;19.00;70.10
36586;DHT22;22591;48.314;11.562;2023-06-04T08:02:17;19.10;71.00
36586;DHT22;22591;48.314;11.562;2023-06-04T08:04:43;19.20;70.90
36586;DHT22;22591;48.314;11.562;2023-06-04T08:07:09;19.20;70.20
36586;DHT22;22591;48.314;11.562;2023-06-04T08:09:34;19.20;70.00
36586;DHT22;22591;48.314;11.562;2023-06-04T08:12:00;19.30;69.30
36586;DHT22;22591;48.314;11.562;2023-06-04T08:14:26;19.30;69.10
36586;DHT22;22591;48.314;11.562;2023-06-04T08:16:55;19.40;69.00
36586;DHT22;22591;48.314;11.562;2023-06-04T08:19:21;19.40;69.20
36586;DHT22;22591;48.314;11.562;2023-06-04T08:21:46;19.40;69.00
36586;DHT22;22591;48.314;11.562;2023-06-04T08:24:13;19.40;69.50
36586;DHT22;22591;48.314;11.562;2023-06-04T08:26:38;19.40;68.80
36586;DHT22;22591;48.314;11.562;2023-06-04T08:29:05;19.50;67.60
36586;DHT22;22591;48.314;11.562;2023-06-04T08:31:32;19.50;68.00
36586;DHT22;22591;48.314;11.562;2023-06-04T08:33:58;19.50;68.50
36586;DHT22;22591;48.314;11.562;2023-06-04T08:36:24;19.60;67.60
36586;DHT22;22591;48.314;11.562;2023-06-04T08:38:49;19.60;67.80
36586;DHT22;22591;48.314;11.562;2023-06-04T08:41:44;19.70;69.00
36586;DHT22;22591;48.314;11.562;2023-06-04T08:44:09;19.90;67.60
36586;DHT22;22591;48.314;11.562;2023-06-04T08:46:39;19.90;68.00
36586;DHT22;22591;48.314;11.562;2023-06-04T08:49:08;19.90;66.80
36586;DHT22;22591;48.314;11.562;2023-06-04T08:51:36;19.90;66.80
36586;DHT22;22591;48.314;11.562;2023-06-04T08:54:06;19.90;67.30
36586;DHT22;22591;48.314;11.562;2023-06-04T08:56:33;19.90;66.90
36586;DHT22;22591;48.314;11.562;2023-06-04T08:59:03;20.10;67.90
36586;DHT22;22591;48.314;11.562;2023-06-04T09:01:31;20.10;67.70
36586;DHT22;22591;48.314;11.562;2023-06-04T09:03:57;20.30;67.70
36586;DHT22;22591;48.314;11.562;2023-06-04T09:06:26;20.30;67.70
36586;DHT22;22591;48.314;11.562;2023-06-04T09:08:54;20.40;67.30
36586;DHT22;22591;48.314;11.562;2023-06-04T09:11:21;20.40;66.70
36586;DHT22;22591;48.314;11.562;2023-06-04T09:13:48;20.50;67.50
36586;DHT22;22591;48.314;11.562;2023-06-04T09:16:14;20.50;66.50
36586;DHT22;22591;48.314;11.562;2023-06-04T09:18:40;20.60;66.60
36586;DHT22;22591;48.314;11.562;2023-06-04T09:21:07;20.60;65.70
36586;DHT22;22591;48.314;11.562;2023-06-04T09:23:49;20.50;65.30
36586;DHT22;22591;48.314;11.562;2023-06-04T09:26:14;20.70;64.70
36586;DHT22;22591;48.314;11.562;2023-06-04T09:28:41;20.70;63.60
36586;DHT22;22591;48.314;11.562;2023-06-04T09:31:14;20.80;63.90
36586;DHT22;22591;48.314;11.562;2023-06-04T09:33:44;20.90;65.70
36586;DHT22;22591;48.314;11.562;2023-06-04T09:36:10;21.10;65.20
36586;DHT22;22591;48.314;11.562;2023-06-04T09:38:36;21.20;64.40
36586;DHT22;22591;48.314;11.562;2023-06-04T09:41:02;21.20;64.30
36586;DHT22;22591;48.314;11.562;2023-06-04T09:43:32;21.10;63.10
36586;DHT22;22591;48.314;11.562;2023-06-04T09:48:36;21.20;62.30
36586;DHT22;22591;48.314;11.562;2023-06-04T09:51:12;21.20;62.70
36586;DHT22;22591;48.314;11.562;2023-06-04T09:53:40;21.20;62.60
36586;DHT22;22591;48.314;11.562;2023-06-04T09:56:07;21.30;63.40
36586;DHT22;22591;48.314;11.562;2023-06-04T09:58:34;21.30;63.40
36586;DHT22;22591;48.314;11.562;2023-06-04T10:01:03;21.30;62.70
36586;DHT22;22591;48.314;11.562;2023-06-04T10:03:36;21.40;63.00
36586;DHT22;22591;48.314;11.562;2023-06-04T10:06:04;21.60;63.50
36586;DHT22;22591;48.314;11.562;2023-06-04T10:08:31;21.60;63.40
36586;DHT22;22591;48.314;11.562;2023-06-04T10:11:01;21.60;62.10
36586;DHT22;22591;48.314;11.562;2023-06-04T10:13:34;21.60;61.80
36586;DHT22;22591;48.314;11.562;2023-06-04T10:16:01;21.50;60.80
36586;DHT22;22591;48.314;11.562;2023-06-04T10:18:27;21.70;63.50
36586;DHT22;22591;48.314;11.562;2023-06-04T10:20:55;21.80;63.50
36586;DHT22;22591;48.314;11.562;2023-06-04T10:23:22;21.90;63.10
36586;DHT22;22591;48.314;11.562;2023-06-04T10:25:52;21.90;61.20
36586;DHT22;22591;48.314;11.562;2023-06-04T10:28:19;21.90;62.50
36586;DHT22;22591;48.314;11.562;2023-06-04T10:30:49;22.00;61.70
36586;DHT22;22591;48.314;11.562;2023-06-04T10:33:19;22.00;61.90
36586;DHT22;22591;48.314;11.562;2023-06-04T10:35:45;22.10;62.20
36586;DHT22;22591;48.314;11.562;2023-06-04T10:38:12;22.20;60.30
36586;DHT22;22591;48.314;11.562;2023-06-04T10:40:39;22.20;62.10
36586;DHT22;22591;48.314;11.562;2023-06-04T10:43:06;22.20;62.00
36586;DHT22;22591;48.314;11.562;2023-06-04T10:45:32;22.30;61.90
36586;DHT22;22591;48.314;11.562;2023-06-04T10:48:01;22.30;60.60
36586;DHT22;22591;48.314;11.562;2023-06-04T10:50:27;22.30;59.20
36586;DHT22;22591;48.314;11.562;2023-06-04T10:52:55;22.20;58.80
36586;DHT22;22591;48.314;11.562;2023-06-04T10:55:21;22.00;58.50
36586;DHT22;22591;48.314;11.562;2023-06-04T10:58:00;22.10;60.30
36586;DHT22;22591;48.314;11.562;2023-06-04T11:00:45;22.30;59.00
36586;DHT22;22591;48.314;11.562;2023-06-04T11:03:12;22.40;60.40
36586;DHT22;22591;48.314;11.562;2023-06-04T11:08:05;22.60;60.00
36586;DHT22;22591;48.314;11.562;2023-06-04T11:10:42;22.60;59.70
36586;DHT22;22591;48.314;11.562;2023-06-04T11:13:07;22.80;59.70
36586;DHT22;22591;48.314;11.562;2023-06-04T11:15:43;22.80;60.40
36586;DHT22;22591;48.314;11.562;2023-06-04T11:18:17;22.90;57.50
36586;DHT22;22591;48.314;11.562;2023-06-04T11:20:44;22.90;57.70
36586;DHT22;22591;48.314;11.562;2023-06-04T11:23:12;23.00;57.00
36586;DHT22;22591;48.314;11.562;2023-06-04T11:25:38;23.10;56.90
36586;DHT22;22591;48.314;11.562;2023-06-04T11:28:04;23.00;58.60
36586;DHT22;22591;48.314;11.562;2023-06-04T11:30:30;22.90;59.30
36586;DHT22;22591;48.314;11.562;2023-06-04T11:33:05;22.90;59.80
36586;DHT22;22591;48.314;11.562;2023-06-04T11:35:39;22.90;58.10
36586;DHT22;22591;48.314;11.562;2023-06-04T11:38:05;22.80;57.20
36586;DHT22;22591;48.314;11.562;2023-06-04T11:40:31;22.80;60.20
36586;DHT22;22591;48.314;11.562;2023-06-04T11:42:56;23.00;59.80
36586;DHT22;22591;48.314;11.562;2023-06-04T11:45:23;23.10;57.10
36586;DHT22;22591;48.314;11.562;2023-06-04T11:47:54;23.10;58.20
36586;DHT22;22591;48.314;11.562;2023-06-04T11:50:21;23.10;58.10
36586;DHT22;22591;48.314;11.562;2023-06-04T11:52:47;23.20;57.00
36586;DHT22;22591;48.314;11.562;2023-06-04T11:55:13;23.10;56.50
36586;DHT22;22591;48.314;11.562;2023-06-04T11:57:40;23.20;57.30
36586;DHT22;22591;48.314;11.562;2023-06-04T12:00:07;23.30;58.20
36586;DHT22;22591;48.314;11.562;2023-06-04T12:02:48;23.40;58.00
36586;DHT22;22591;48.314;11.562;2023-06-04T12:05:14;23.30;57.00
36586;DHT22;22591;48.314;11.562;2023-06-04T12:07:40;23.20;56.20
36586;DHT22;22591;48.314;11.562;2023-06-04T12:10:10;23.20;56.50
36586;DHT22;22591;48.314;11.562;2023-06-04T12:12:37;23.20;56.40
36586;DHT22;22591;48.314;11.562;2023-06-04T12:15:03;23.40;54.20
36586;DHT22;22591;48.314;11.562;2023-06-04T12:17:31;23.40;54.40
36586;DHT22;22591;48.314;11.562;2023-06-04T12:19:56;23.60;54.50
36586;DHT22;22591;48.314;11.562;2023-06-04T12:22:24;23.70;53.60
36586;DHT22;22591;48.314;11.562;2023-06-04T12:24:52;23.60;53.50
36586;DHT22;22591;48.314;11.562;2023-06-04T12:27:19;23.50;54.20
36586;DHT22;22591;48.314;11.562;2023-06-04T12:30:02;23.70;56.20
36586;DHT22;22591;48.314;11.562;2023-06-04T12:32:28;23.70;57.60
36586;DHT22;22591;48.314;11.562;2023-06-04T12:34:54;23.70;56.90
36586;DHT22;22591;48.314;11.562;2023-06-04T12:37:23;23.90;56.70
36586;DHT22;22591;48.314;11.562;2023-06-04T12:39:50;23.90;56.30
36586;DHT22;22591;48.314;11.562;2023-06-04T12:42:18;24.00;56.20
36586;DHT22;22591;48.314;11.562;2023-06-04T12:44:44;24.10;55.20
36586;DHT22;22591;48.314;11.562;2023-06-04T12:47:10;24.20;53.70
36586;DHT22;22591;48.314;11.562;2023-06-04T12:49:36;24.30;54.20
36586;DHT22;22591;48.314;11.562;2023-06-04T12:52:02;24.40;56.00
36586;DHT22;22591;48.314;11.562;2023-06-04T12:54:28;24.40;55.30
36586;DHT22;22591;48.314;11.562;2023-06-04T12:56:54;24.30;53.80
36586;DHT22;22591;48.314;11.562;2023-06-04T12:59:22;24.30;54.80
36586;DHT22;22591;48.314;11.562;2023-06-04T13:01:47;24.40;55.00
36586;DHT22;22591;48.314;11.562;2023-06-04T13:04:13;24.30;54.60
36586;DHT22;22591;48.314;11.562;2023-06-04T13:06:39;24.40;54.40
36586;DHT22;22591;48.314;11.562;2023-06-04T13:09:06;24.40;53.20
36586;DHT22;22591;48.314;11.562;2023-06-04T13:11:42;24.40;52.90
36586;DHT22;22591;48.314;11.562;2023-06-04T13:14:09;24.40;54.10
36586;DHT22;22591;48.314;11.562;2023-06-04T13:16:35;24.40;53.10
36586;DHT22;22591;48.314;11.562;2023-06-04T13:19:01;24.60;53.20
36586;DHT22;22591;48.314;11.562;2023-06-04T13:21:27;24.80;52.50
36586;DHT22;22591;48.314;11.562;2023-06-04T13:23:52;24.90;52.20
36586;DHT22;22591;48.314;11.562;2023-06-04T13:26:18;25.10;52.50
36586;DHT22;22591;48.314;11.562;2023-06-04T13:28:44;25.10;52.50
36586;DHT22;22591;48.314;11.562;2023-06-04T13:31:10;25.10;52.40
36586;DHT22;22591;48.314;11.562;2023-06-04T13:33:36;24.90;52.90
36586;DHT22;22591;48.314;11.562;2023-06-04T13:36:05;25.00;52.90
36586;DHT22;22591;48.314;11.562;2023-06-04T13:38:32;25.20;51.60
36586;DHT22;22591;48.314;11.562;2023-06-04T13:40:57;25.30;51.20
36586;DHT22;22591;48.314;11.562;2023-06-04T13:43:23;25.50;51.50
36586;DHT22;22591;48.314;11.562;2023-06-04T13:45:48;25.90;51.50
36586;DHT22;22591;48.314;11.562;2023-06-04T13:48:15;25.70;51.70
36586;DHT22;22591;48.314;11.562;2023-06-04T13:50:41;25.80;53.20
36586;DHT22;22591;48.314;11.562;2023-06-04T13:53:07;25.80;52.70
36586;DHT22;22591;48.314;11.562;2023-06-04T13:55:33;25.70;52.50
36586;DHT22;22591;48.314;11.562;2023-06-04T13:57:58;25.80;51.70
36586;DHT22;22591;48.314;11.562;2023-06-04T14:00:24;26.20;52.40
36586;DHT22;22591;48.314;11.562;2023-06-04T14:02:50;26.40;53.40
36586;DHT22;22591;48.314;11.562;2023-06-04T14:05:16;26.50;51.10
36586;DHT22;22591;48.314;11.562;2023-06-04T14:07:42;26.40;52.90
36586;DHT22;22591;48.314;11.562;2023-06-04T14:10:09;26.60;53.00
36586;DHT22;22591;48.314;11.562;2023-06-04T14:12:36;26.70;51.90
36586;DHT22;22591;48.314;11.562;2023-06-04T14:15:02;27.20;52.20
36586;DHT22;22591;48.314;11.562;2023-06-04T14:17:28;27.70;52.70
36586;DHT22;22591;48.314;11.562;2023-06-04T14:19:53;27.50;51.00
36586;DHT22;22591;48.314;11.562;2023-06-04T14:22:19;27.40;51.90
36586;DHT22;22591;48.314;11.562;2023-06-04T14:24:44;27.10;51.20
36586;DHT22;22591;48.314;11.562;2023-06-04T14:27:10;26.90;50.80
36586;DHT22;22591;48.314;11.562;2023-06-04T14:29:36;26.80;50.60
36586;DHT22;22591;48.314;11.562;2023-06-04T14:32:04;26.80;50.60
36586;DHT22;22591;48.314;11.562;2023-06-04T14:34:30;27.00;50.50
36586;DHT22;22591;48.314;11.562;2023-06-04T14:36:57;27.30;51.90
36586;DHT22;22591;48.314;11.562;2023-06-04T14:39:28;27.40;51.60
36586;DHT22;22591;48.314;11.562;2023-06-04T14:41:53;27.50;50.90
36586;DHT22;22591;48.314;11.562;2023-06-04T14:44:19;27.30;49.40
36586;DHT22;22591;48.314;11.562;2023-06-04T14:46:46;27.30;50.20
36586;DHT22;22591;48.314;11.562;2023-06-04T14:49:11;27.50;49.80
36586;DHT22;22591;48.314;11.562;2023-06-04T14:51:37;27.90;49.30
36586;DHT22;22591;48.314;11.562;2023-06-04T14:54:02;28.00;49.00
36586;DHT22;22591;48.314;11.562;2023-06-04T14:56:28;27.50;47.40
36586;DHT22;22591;48.314;11.562;2023-06-04T14:58:55;26.90;47.10
36586;DHT22;22591;48.314;11.562;2023-06-04T15:01:21;26.50;48.20
36586;DHT22;22591;48.314;11.562;2023-06-04T15:03:49;26.50;49.00
36586;DHT22;22591;48.314;11.562;2023-06-04T15:06:15;26.30;48.70
36586;DHT22;22591;48.314;11.562;2023-06-04T15:08:41;26.00;49.40
36586;DHT22;22591;48.314;11.562;2023-06-04T15:11:06;26.10;49.90
36586;DHT22;22591;48.314;11.562;2023-06-04T15:13:32;26.20;49.40
36586;DHT22;22591;48.314;11.562;2023-06-04T15:15:57;26.60;49.30
36586;DHT22;22591;48.314;11.562;2023-06-04T15:18:23;26.90;47.80
36586;DHT22;22591;48.314;11.562;2023-06-04T15:20:48;26.70;46.90
36586;DHT22;22591;48.314;11.562;2023-06-04T15:23:14;26.90;47.90